createdAt,value
2019-05-07T00:00:22.304Z,0.00
2019-05-07T00:01:23.245Z,0.00
2019-05-07T00:02:22.618Z,0.00
2019-05-07T00:03:22.268Z,0.00
2019-05-07T00:04:22.646Z,0.00
2019-05-07T00:05:22.867Z,0.00
2019-05-07T00:06:23.071Z,0.00
2019-05-07T00:07:22.512Z,0.00
2019-05-07T00:08:22.942Z,0.00
2019-05-07T00:09:23.337Z,0.00
2019-05-07T00:10:24.700Z,0.00
2019-05-07T00:11:22.436Z,0.00
2019-05-07T00:12:23.093Z,0.00
2019-05-07T00:13:22.713Z,0.00
2019-05-07T00:14:23.099Z,0.00
2019-05-07T00:15:22.988Z,0.00
2019-05-07T00:16:22.554Z,0.00
2019-05-07T00:17:22.856Z,0.00
2019-05-07T00:18:22.957Z,0.00
2019-05-07T00:19:23.057Z,0.00
2019-05-07T00:20:23.125Z,0.00
2019-05-07T00:21:23.287Z,0.00
2019-05-07T00:22:22.811Z,0.00
2019-05-07T00:23:23.239Z,0.00
2019-05-07T00:24:22.414Z,0.00
2019-05-07T00:25:22.898Z,0.00
2019-05-07T00:26:22.563Z,0.00
2019-05-07T00:27:22.641Z,0.00
2019-05-07T00:28:23.031Z,0.00
2019-05-07T00:29:22.519Z,0.00
2019-05-07T00:30:22.400Z,0.00
2019-05-07T00:31:23.257Z,0.00
2019-05-07T00:32:22.259Z,0.00
2019-05-07T00:33:22.698Z,0.00
2019-05-07T00:34:22.071Z,0.00
2019-05-07T00:35:22.584Z,0.00
2019-05-07T00:36:23.093Z,0.00
2019-05-07T00:37:22.098Z,0.00
2019-05-07T00:38:22.429Z,0.00
2019-05-07T00:39:22.009Z,0.00
2019-05-07T00:40:22.565Z,0.00
2019-05-07T00:41:22.939Z,0.00
2019-05-07T00:42:22.165Z,0.00
2019-05-07T00:43:22.681Z,0.00
2019-05-07T00:44:22.152Z,0.00
2019-05-07T00:45:23.886Z,0.00
2019-05-07T00:46:22.610Z,0.00
2019-05-07T00:47:22.231Z,0.00
2019-05-07T00:48:23.464Z,0.00
2019-05-07T00:49:22.195Z,0.00
2019-05-07T00:50:22.522Z,0.00
2019-05-07T00:51:22.649Z,0.00
2019-05-07T00:52:22.579Z,0.00
2019-05-07T00:53:23.651Z,0.00
2019-05-07T00:54:23.052Z,0.00
2019-05-07T00:55:22.768Z,0.00
2019-05-07T00:56:22.301Z,0.00
2019-05-07T00:57:22.882Z,0.00
2019-05-07T00:58:26.333Z,0.00
2019-05-07T00:59:22.594Z,0.00
2019-05-07T01:00:22.308Z,0.00
2019-05-07T01:01:22.748Z,0.00
2019-05-07T01:02:22.390Z,0.00
2019-05-07T01:03:22.223Z,0.00
2019-05-07T01:04:22.929Z,0.00
2019-05-07T01:05:23.126Z,0.00
2019-05-07T01:06:22.758Z,0.00
2019-05-07T01:07:22.908Z,0.00
2019-05-07T01:08:22.506Z,0.00
2019-05-07T01:09:22.917Z,0.00
2019-05-07T01:10:22.279Z,0.00
2019-05-07T01:11:22.653Z,0.00
2019-05-07T01:12:22.208Z,0.00
2019-05-07T01:13:23.344Z,0.00
2019-05-07T01:14:22.817Z,0.00
2019-05-07T01:15:28.817Z,0.00
2019-05-07T01:16:22.216Z,0.00
2019-05-07T01:17:22.757Z,0.00
2019-05-07T01:18:23.369Z,0.00
2019-05-07T01:19:21.921Z,0.00
2019-05-07T01:20:22.162Z,0.00
2019-05-07T01:21:22.680Z,0.00
2019-05-07T01:22:22.239Z,0.00
2019-05-07T01:23:22.922Z,0.00
2019-05-07T01:24:23.249Z,0.00
2019-05-07T01:25:22.081Z,0.00
2019-05-07T01:26:21.945Z,0.00
2019-05-07T01:27:22.683Z,0.00
2019-05-07T01:28:22.272Z,0.00
2019-05-07T01:29:22.615Z,0.00
2019-05-07T01:30:23.129Z,0.00
2019-05-07T01:31:22.185Z,0.00
2019-05-07T01:32:22.194Z,0.00
2019-05-07T01:33:22.733Z,0.00
2019-05-07T01:34:23.098Z,0.00
2019-05-07T01:35:22.429Z,0.00
2019-05-07T01:36:22.624Z,0.00
2019-05-07T01:37:23.061Z,0.00
2019-05-07T01:38:22.961Z,0.00
2019-05-07T01:39:23.110Z,0.00
2019-05-07T01:40:22.808Z,0.00
2019-05-07T01:41:23.004Z,0.00
2019-05-07T01:42:22.154Z,0.00
2019-05-07T01:43:22.772Z,0.00
2019-05-07T01:44:22.152Z,0.00
2019-05-07T01:45:22.443Z,0.00
2019-05-07T01:46:24.551Z,0.00
2019-05-07T01:47:20.946Z,0.00
2019-05-07T01:48:22.847Z,0.00
2019-05-07T01:49:20.922Z,0.00
2019-05-07T01:50:22.720Z,0.00
2019-05-07T01:51:22.261Z,0.00
2019-05-07T01:52:22.653Z,0.00
2019-05-07T01:53:22.780Z,0.00
2019-05-07T01:54:23.486Z,0.00
2019-05-07T01:55:22.534Z,0.00
2019-05-07T01:56:22.914Z,0.00
2019-05-07T01:57:22.959Z,0.00
2019-05-07T01:58:22.122Z,0.00
2019-05-07T01:59:22.472Z,0.00
2019-05-07T02:00:22.434Z,0.00
2019-05-07T02:01:22.176Z,0.00
2019-05-07T02:02:22.793Z,0.00
2019-05-07T02:03:22.921Z,0.00
2019-05-07T02:04:22.394Z,0.00
2019-05-07T02:05:22.814Z,0.00
2019-05-07T02:06:22.038Z,0.00
2019-05-07T02:07:22.595Z,0.00
2019-05-07T02:08:22.115Z,0.00
2019-05-07T02:09:22.535Z,0.00
2019-05-07T02:10:22.629Z,0.00
2019-05-07T02:11:21.855Z,0.00
2019-05-07T02:12:22.209Z,0.00
2019-05-07T02:13:22.323Z,0.00
2019-05-07T02:14:21.904Z,0.00
2019-05-07T02:15:22.499Z,0.00
2019-05-07T02:16:21.854Z,0.00
2019-05-07T02:17:22.667Z,0.00
2019-05-07T02:18:21.827Z,0.00
2019-05-07T02:19:22.034Z,0.00
2019-05-07T02:20:22.398Z,0.00
2019-05-07T02:21:22.068Z,0.00
2019-05-07T02:22:22.543Z,0.00
2019-05-07T02:23:22.145Z,0.00
2019-05-07T02:24:21.987Z,0.00
2019-05-07T02:25:22.120Z,0.00
2019-05-07T02:26:22.386Z,0.00
2019-05-07T02:27:22.146Z,0.00
2019-05-07T02:28:22.243Z,0.00
2019-05-07T02:29:20.412Z,0.00
2019-05-07T02:30:23.325Z,0.00
2019-05-07T02:31:22.986Z,0.00
2019-05-07T02:32:20.378Z,0.00
2019-05-07T02:33:23.025Z,0.00
2019-05-07T02:34:23.203Z,0.00
2019-05-07T02:35:23.326Z,0.00
2019-05-07T02:36:23.377Z,0.00
2019-05-07T02:37:23.207Z,0.00
2019-05-07T02:38:22.994Z,0.00
2019-05-07T02:39:23.748Z,0.00
2019-05-07T02:40:22.963Z,0.00
2019-05-07T02:41:23.178Z,0.00
2019-05-07T02:42:20.249Z,0.00
2019-05-07T02:43:22.613Z,0.00
2019-05-07T02:44:23.023Z,0.00
2019-05-07T02:45:21.042Z,0.00
2019-05-07T02:46:29.351Z,0.00
2019-05-07T02:47:20.187Z,0.00
2019-05-07T02:48:23.535Z,0.00
2019-05-07T02:49:23.286Z,0.00
2019-05-07T02:50:22.759Z,0.00
2019-05-07T02:51:20.136Z,0.00
2019-05-07T02:52:22.748Z,0.00
2019-05-07T02:53:22.578Z,0.00
2019-05-07T02:54:20.098Z,0.00
2019-05-07T02:55:23.005Z,0.00
2019-05-07T02:56:20.082Z,0.00
2019-05-07T02:57:20.060Z,0.00
2019-05-07T02:58:23.670Z,0.00
2019-05-07T02:59:23.056Z,0.00
2019-05-07T03:00:20.026Z,0.00
2019-05-07T03:01:22.465Z,0.00
2019-05-07T03:02:19.997Z,0.00
2019-05-07T03:03:19.983Z,0.00
2019-05-07T03:04:19.971Z,0.00
2019-05-07T03:05:22.670Z,0.00
2019-05-07T03:06:23.040Z,0.00
2019-05-07T03:07:19.933Z,0.00
2019-05-07T03:08:23.504Z,0.00
2019-05-07T03:09:22.618Z,0.00
2019-05-07T03:10:23.289Z,0.00
2019-05-07T03:11:22.771Z,0.00
2019-05-07T03:12:19.870Z,0.00
2019-05-07T03:13:23.221Z,0.00
2019-05-07T03:14:19.843Z,0.00
2019-05-07T03:15:19.832Z,0.00
2019-05-07T03:16:37.534Z,0.00
2019-05-07T03:17:19.806Z,0.00
2019-05-07T03:18:23.038Z,0.00
2019-05-07T03:19:19.780Z,0.00
2019-05-07T03:20:22.823Z,0.00
2019-05-07T03:21:19.757Z,0.00
2019-05-07T03:22:22.885Z,0.00
2019-05-07T03:23:22.589Z,0.00
2019-05-07T03:24:22.480Z,4.00
2019-05-07T03:25:22.494Z,4.00
2019-05-07T03:26:22.869Z,4.00
2019-05-07T03:27:23.146Z,0.00
2019-05-07T03:28:19.664Z,0.00
2019-05-07T03:29:19.652Z,4.00
2019-05-07T03:30:19.647Z,4.00
2019-05-07T03:31:25.465Z,4.00
2019-05-07T03:32:19.614Z,4.00
2019-05-07T03:33:25.619Z,4.00
2019-05-07T03:34:19.589Z,8.00
2019-05-07T03:35:19.578Z,8.00
2019-05-07T03:36:19.562Z,8.00
2019-05-07T03:37:19.547Z,12.00
2019-05-07T03:38:22.648Z,12.00
2019-05-07T03:39:19.525Z,12.00
2019-05-07T03:40:19.510Z,16.00
2019-05-07T03:41:22.499Z,12.00
2019-05-07T03:42:19.486Z,20.00
2019-05-07T03:43:22.644Z,20.00
2019-05-07T03:44:19.456Z,20.00
2019-05-07T03:45:19.446Z,24.00
2019-05-07T03:46:19.432Z,28.00
2019-05-07T03:47:19.431Z,32.00
2019-05-07T03:48:19.412Z,36.00
2019-05-07T03:49:19.394Z,36.00
2019-05-07T03:50:19.388Z,40.00
2019-05-07T03:51:19.375Z,48.00
2019-05-07T03:52:19.356Z,56.00
2019-05-07T03:53:19.341Z,60.00
2019-05-07T03:54:19.331Z,64.00
2019-05-07T03:55:19.325Z,72.00
2019-05-07T03:56:19.311Z,76.00
2019-05-07T03:57:19.290Z,80.00
2019-05-07T03:58:19.279Z,88.00
2019-05-07T03:59:19.266Z,92.00
2019-05-07T04:00:19.252Z,104.00
2019-05-07T04:01:19.239Z,112.00
2019-05-07T04:02:19.236Z,120.00
2019-05-07T04:03:23.142Z,132.00
2019-05-07T04:04:19.201Z,144.00
2019-05-07T04:05:19.195Z,156.00
2019-05-07T04:06:19.176Z,172.00
2019-05-07T04:07:19.164Z,184.00
2019-05-07T04:08:19.149Z,196.00
2019-05-07T04:09:19.137Z,212.00
2019-05-07T04:10:19.177Z,224.00
2019-05-07T04:11:19.123Z,240.00
2019-05-07T04:12:19.101Z,260.00
2019-05-07T04:13:19.086Z,280.00
2019-05-07T04:14:19.081Z,300.00
2019-05-07T04:15:19.648Z,324.00
2019-05-07T04:16:19.048Z,352.00
2019-05-07T04:17:23.321Z,388.00
2019-05-07T04:18:19.024Z,424.00
2019-05-07T04:19:19.010Z,464.00
2019-05-07T04:20:18.996Z,504.00
2019-05-07T04:21:18.984Z,532.00
2019-05-07T04:22:18.971Z,560.00
2019-05-07T04:23:18.959Z,588.00
2019-05-07T04:24:18.947Z,624.00
2019-05-07T04:25:18.932Z,664.00
2019-05-07T04:26:18.922Z,704.00
2019-05-07T04:27:18.907Z,740.00
2019-05-07T04:28:18.894Z,776.00
2019-05-07T04:29:18.882Z,816.00
2019-05-07T04:30:18.868Z,856.00
2019-05-07T04:31:18.856Z,900.00
2019-05-07T04:32:18.843Z,956.00
2019-05-07T04:33:18.846Z,1016.00
2019-05-07T04:34:18.821Z,1084.00
2019-05-07T04:35:18.806Z,1152.00
2019-05-07T04:36:18.798Z,1224.00
2019-05-07T04:37:18.785Z,1280.00
2019-05-07T04:38:18.770Z,1360.00
2019-05-07T04:39:18.754Z,1452.00
2019-05-07T04:40:18.744Z,1512.00
2019-05-07T04:41:18.728Z,1564.00
2019-05-07T04:42:18.727Z,1616.00
2019-05-07T04:43:18.702Z,1688.00
2019-05-07T04:44:18.689Z,1768.00
2019-05-07T04:45:18.698Z,1864.00
2019-05-07T04:46:18.665Z,1944.00
2019-05-07T04:47:34.825Z,2028.00
2019-05-07T04:48:18.640Z,2124.00
2019-05-07T04:49:18.626Z,2188.00
2019-05-07T04:50:34.735Z,2236.00
2019-05-07T04:51:18.609Z,2304.00
2019-05-07T04:52:18.588Z,2408.00
2019-05-07T04:53:18.578Z,2524.00
2019-05-07T04:54:18.563Z,2616.00
2019-05-07T04:55:18.550Z,2664.00
2019-05-07T04:56:18.542Z,2668.00
2019-05-07T04:57:18.525Z,2676.00
2019-05-07T04:58:18.513Z,2700.00
2019-05-07T04:59:18.504Z,2704.00
2019-05-07T05:00:18.488Z,2712.00
2019-05-07T05:01:18.476Z,2740.00
2019-05-07T05:02:18.468Z,2808.00
2019-05-07T05:03:18.459Z,2892.00
2019-05-07T05:04:26.852Z,3004.00
2019-05-07T05:05:18.425Z,3132.00
2019-05-07T05:06:18.414Z,3256.00
2019-05-07T05:07:18.401Z,3368.00
2019-05-07T05:08:18.389Z,3452.00
2019-05-07T05:09:18.417Z,3536.00
2019-05-07T05:10:18.365Z,3628.00
2019-05-07T05:11:18.351Z,3756.00
2019-05-07T05:12:18.343Z,3868.00
2019-05-07T05:13:18.334Z,4028.00
2019-05-07T05:14:18.314Z,4160.00
2019-05-07T05:15:18.303Z,4232.00
2019-05-07T05:16:18.288Z,4352.00
2019-05-07T05:17:18.277Z,4504.00
2019-05-07T05:18:18.265Z,4616.00
2019-05-07T05:19:18.253Z,4740.00
2019-05-07T05:20:18.239Z,4860.00
2019-05-07T05:21:18.228Z,4928.00
2019-05-07T05:22:18.216Z,5060.00
2019-05-07T05:23:18.204Z,5168.00
2019-05-07T05:24:18.191Z,5232.00
2019-05-07T05:25:18.185Z,5372.00
2019-05-07T05:26:18.168Z,5484.00
2019-05-07T05:27:18.157Z,5464.00
2019-05-07T05:28:18.143Z,5444.00
2019-05-07T05:29:18.132Z,5408.00
2019-05-07T05:30:18.129Z,5368.00
2019-05-07T05:31:18.108Z,5276.00
2019-05-07T05:32:18.095Z,5316.00
2019-05-07T05:33:18.092Z,5536.00
2019-05-07T05:34:18.072Z,5512.00
2019-05-07T05:35:18.067Z,5532.00
2019-05-07T05:36:18.049Z,5580.00
2019-05-07T05:37:18.038Z,5616.00
2019-05-07T05:38:18.029Z,5632.00
2019-05-07T05:39:18.018Z,5636.00
2019-05-07T05:40:18.001Z,5652.00
2019-05-07T05:41:17.990Z,5696.00
2019-05-07T05:42:17.979Z,5748.00
2019-05-07T05:43:17.967Z,5736.00
2019-05-07T05:44:17.955Z,5760.00
2019-05-07T05:45:17.967Z,5716.00
2019-05-07T05:46:17.934Z,5684.00
2019-05-07T05:47:17.921Z,5720.00
2019-05-07T05:48:17.910Z,5848.00
2019-05-07T05:49:17.896Z,6016.00
2019-05-07T05:50:17.886Z,6104.00
2019-05-07T05:51:17.875Z,6216.00
2019-05-07T05:52:17.864Z,6308.00
2019-05-07T05:53:17.851Z,6436.00
2019-05-07T05:54:17.839Z,6436.00
2019-05-07T05:55:17.834Z,6408.00
2019-05-07T05:56:18.972Z,6464.00
2019-05-07T05:57:17.804Z,6580.00
2019-05-07T05:58:17.793Z,6640.00
2019-05-07T05:59:27.248Z,6708.00
2019-05-07T06:00:17.769Z,6676.00
2019-05-07T06:01:17.761Z,6656.00
2019-05-07T06:02:17.749Z,7084.00
2019-05-07T06:03:17.738Z,7232.00
2019-05-07T06:04:17.723Z,7388.00
2019-05-07T06:05:17.715Z,7336.00
2019-05-07T06:06:17.700Z,7316.00
2019-05-07T06:07:17.690Z,7516.00
2019-05-07T06:08:17.867Z,7872.00
2019-05-07T06:09:17.666Z,7996.00
2019-05-07T06:10:17.654Z,8012.00
2019-05-07T06:11:17.645Z,7972.00
2019-05-07T06:12:17.632Z,8468.00
2019-05-07T06:13:17.621Z,8512.00
2019-05-07T06:14:17.610Z,9068.00
2019-05-07T06:15:17.602Z,9568.00
2019-05-07T06:16:17.586Z,9660.00
2019-05-07T06:17:17.576Z,9756.00
2019-05-07T06:18:21.255Z,9656.00
2019-05-07T06:19:17.554Z,9508.00
2019-05-07T06:20:17.548Z,9428.00
2019-05-07T06:21:17.531Z,9396.00
2019-05-07T06:22:17.521Z,8904.00
2019-05-07T06:23:17.510Z,8520.00
2019-05-07T06:24:17.501Z,8364.00
2019-05-07T06:25:17.494Z,8312.00
2019-05-07T06:26:17.492Z,8272.00
2019-05-07T06:27:17.466Z,8368.00
2019-05-07T06:28:17.455Z,8504.00
2019-05-07T06:29:20.050Z,8628.00
2019-05-07T06:30:17.434Z,8684.00
2019-05-07T06:31:17.424Z,9092.00
2019-05-07T06:32:17.413Z,9496.00
2019-05-07T06:33:17.401Z,10108.00
2019-05-07T06:34:17.392Z,10700.00
2019-05-07T06:35:19.383Z,11232.00
2019-05-07T06:36:17.370Z,11360.00
2019-05-07T06:37:17.359Z,11228.00
2019-05-07T06:38:17.349Z,11472.00
2019-05-07T06:39:17.339Z,11664.00
2019-05-07T06:40:19.611Z,11720.00
2019-05-07T06:41:17.318Z,12036.00
2019-05-07T06:42:17.307Z,12240.00
2019-05-07T06:43:17.301Z,12884.00
2019-05-07T06:44:17.287Z,14660.00
2019-05-07T06:45:17.277Z,13792.00
2019-05-07T06:46:17.268Z,12572.00
2019-05-07T06:47:17.257Z,11500.00
2019-05-07T06:48:17.247Z,11596.00
2019-05-07T06:49:17.241Z,11748.00
2019-05-07T06:50:17.227Z,12004.00
2019-05-07T06:51:17.714Z,12640.00
2019-05-07T06:52:17.206Z,12480.00
2019-05-07T06:53:17.196Z,12180.00
2019-05-07T06:54:17.187Z,12236.00
2019-05-07T06:55:17.177Z,12868.00
2019-05-07T06:56:17.166Z,13004.00
2019-05-07T06:57:17.160Z,13960.00
2019-05-07T06:58:17.149Z,17568.00
2019-05-07T06:59:17.139Z,20512.00
2019-05-07T07:00:17.127Z,20832.00
2019-05-07T07:01:17.123Z,19360.00
2019-05-07T07:02:17.113Z,18912.00
2019-05-07T07:03:17.100Z,18848.00
2019-05-07T07:04:17.090Z,20608.00
2019-05-07T07:05:17.081Z,21216.00
2019-05-07T07:06:17.077Z,19680.00
2019-05-07T07:07:27.486Z,21376.00
2019-05-07T07:08:17.057Z,24768.00
2019-05-07T07:09:17.047Z,25952.00
2019-05-07T07:10:17.037Z,26336.00
2019-05-07T07:11:17.029Z,25952.00
2019-05-07T07:12:17.019Z,26944.00
2019-05-07T07:13:17.012Z,27072.00
2019-05-07T07:14:17.005Z,24288.00
2019-05-07T07:15:16.998Z,24480.00
2019-05-07T07:16:16.988Z,25536.00
2019-05-07T07:17:16.982Z,23392.00
2019-05-07T07:18:16.973Z,22880.00
2019-05-07T07:19:16.970Z,23744.00
2019-05-07T07:20:16.958Z,23584.00
2019-05-07T07:21:16.950Z,23776.00
2019-05-07T07:22:16.944Z,24960.00
2019-05-07T07:23:16.936Z,25024.00
2019-05-07T07:24:16.928Z,24864.00
2019-05-07T07:25:16.921Z,26720.00
2019-05-07T07:26:16.914Z,26912.00
2019-05-07T07:27:16.910Z,26336.00
2019-05-07T07:28:16.901Z,25152.00
2019-05-07T07:29:16.894Z,22688.00
2019-05-07T07:30:16.887Z,22656.00
2019-05-07T07:31:16.880Z,21312.00
2019-05-07T07:32:16.873Z,22016.00
2019-05-07T07:33:16.866Z,22656.00
2019-05-07T07:34:16.870Z,23104.00
2019-05-07T07:35:16.856Z,23520.00
2019-05-07T07:36:16.847Z,25536.00
2019-05-07T07:37:16.843Z,22656.00
2019-05-07T07:38:16.834Z,23840.00
2019-05-07T07:39:16.828Z,24800.00
2019-05-07T07:40:16.820Z,27168.00
2019-05-07T07:41:16.814Z,28960.00
2019-05-07T07:42:16.808Z,30368.00
2019-05-07T07:43:16.803Z,30336.00
2019-05-07T07:44:16.795Z,30272.00
2019-05-07T07:45:16.791Z,30336.00
2019-05-07T07:46:16.814Z,30336.00
2019-05-07T07:47:16.778Z,30656.00
2019-05-07T07:48:16.773Z,30464.00
2019-05-07T07:49:16.770Z,31328.00
2019-05-07T07:50:16.763Z,32032.00
2019-05-07T07:51:16.915Z,30560.00
2019-05-07T07:52:16.748Z,28352.00
2019-05-07T07:53:16.744Z,27712.00
2019-05-07T07:54:16.737Z,27008.00
2019-05-07T07:55:16.731Z,28864.00
2019-05-07T07:56:16.725Z,33056.00
2019-05-07T07:57:16.719Z,35264.00
2019-05-07T07:58:16.714Z,37248.00
2019-05-07T07:59:16.708Z,43744.00
2019-05-07T08:00:16.712Z,44128.00
2019-05-07T08:01:16.699Z,40896.00
2019-05-07T08:02:16.695Z,37824.00
2019-05-07T08:03:16.686Z,39008.00
2019-05-07T08:04:16.680Z,39584.00
2019-05-07T08:05:16.680Z,40192.00
2019-05-07T08:06:16.671Z,39328.00
2019-05-07T08:07:16.666Z,42368.00
2019-05-07T08:08:16.662Z,43648.00
2019-05-07T08:09:16.657Z,45152.00
2019-05-07T08:10:16.653Z,47328.00
2019-05-07T08:11:16.657Z,30816.00
2019-05-07T08:12:16.645Z,34368.00
2019-05-07T08:13:16.645Z,31680.00
2019-05-07T08:14:16.637Z,33856.00
2019-05-07T08:15:20.836Z,31072.00
2019-05-07T08:16:16.628Z,33856.00
2019-05-07T08:17:16.624Z,36128.00
2019-05-07T08:18:16.647Z,37760.00
2019-05-07T08:19:22.047Z,38336.00
2019-05-07T08:20:16.611Z,35584.00
2019-05-07T08:21:16.607Z,32704.00
2019-05-07T08:22:16.606Z,28992.00
2019-05-07T08:23:16.600Z,18816.00
2019-05-07T08:24:16.594Z,32672.00
2019-05-07T08:25:16.640Z,37344.00
2019-05-07T08:26:16.586Z,22176.00
2019-05-07T08:27:16.582Z,24448.00
2019-05-07T08:28:16.598Z,24128.00
2019-05-07T08:29:16.573Z,51616.00
2019-05-07T08:30:16.570Z,53792.00
2019-05-07T08:31:16.565Z,51616.00
2019-05-07T08:32:16.562Z,51008.00
2019-05-07T08:33:16.556Z,52992.00
2019-05-07T08:34:16.556Z,51648.00
2019-05-07T08:35:16.550Z,52800.00
2019-05-07T08:36:16.549Z,54496.00
2019-05-07T08:37:16.544Z,54752.00
2019-05-07T08:38:16.547Z,57568.00
2019-05-07T08:39:16.541Z,55584.00
2019-05-07T08:40:16.537Z,51264.00
2019-05-07T08:41:16.541Z,55968.00
2019-05-07T08:42:16.535Z,64800.00
2019-05-07T08:43:16.532Z,61152.00
2019-05-07T08:44:16.531Z,66144.00
2019-05-07T08:45:16.597Z,66464.00
2019-05-07T08:46:16.534Z,63296.00
2019-05-07T08:47:16.529Z,44672.00
2019-05-07T08:48:16.530Z,34400.00
2019-05-07T08:49:16.529Z,36640.00
2019-05-07T08:50:16.529Z,22272.00
2019-05-07T08:51:16.527Z,42560.00
2019-05-07T08:52:16.526Z,62688.00
2019-05-07T08:53:16.527Z,65280.00
2019-05-07T08:54:16.523Z,66720.00
2019-05-07T08:55:16.524Z,74528.00
2019-05-07T08:56:16.522Z,82592.00
2019-05-07T08:57:16.523Z,37536.00
2019-05-07T08:58:16.523Z,23680.00
2019-05-07T08:59:16.524Z,22176.00
2019-05-07T09:00:16.524Z,70240.00
2019-05-07T09:01:16.523Z,64448.00
2019-05-07T09:02:16.523Z,77632.00
2019-05-07T09:03:22.280Z,56352.00
2019-05-07T09:04:16.522Z,44608.00
2019-05-07T09:05:16.522Z,33824.00
2019-05-07T09:06:16.523Z,37184.00
2019-05-07T09:07:16.522Z,32640.00
2019-05-07T09:08:16.520Z,59808.00
2019-05-07T09:09:16.519Z,66112.00
2019-05-07T09:10:16.518Z,65632.00
2019-05-07T09:11:16.522Z,66016.00
2019-05-07T09:12:16.516Z,59392.00
2019-05-07T09:13:16.515Z,31616.00
2019-05-07T09:14:16.515Z,65120.00
2019-05-07T09:15:16.514Z,72192.00
2019-05-07T09:16:16.550Z,81984.00
2019-05-07T09:17:16.513Z,79328.00
2019-05-07T09:18:16.513Z,73568.00
2019-05-07T09:19:16.514Z,78208.00
2019-05-07T09:20:16.515Z,77472.00
2019-05-07T09:21:16.516Z,79648.00
2019-05-07T09:22:16.518Z,82016.00
2019-05-07T09:23:16.520Z,81184.00
2019-05-07T09:24:16.521Z,75776.00
2019-05-07T09:25:16.525Z,34496.00
2019-05-07T09:26:16.553Z,21472.00
2019-05-07T09:27:16.530Z,20704.00
2019-05-07T09:28:16.529Z,63936.00
2019-05-07T09:29:16.531Z,30336.00
2019-05-07T09:30:16.534Z,16768.00
2019-05-07T09:31:16.535Z,15664.00
2019-05-07T09:32:16.532Z,15676.00
2019-05-07T09:33:16.533Z,17568.00
2019-05-07T09:34:16.531Z,16704.00
2019-05-07T09:35:16.529Z,16704.00
2019-05-07T09:36:16.525Z,18656.00
2019-05-07T09:37:16.523Z,69088.00
2019-05-07T09:38:16.520Z,72128.00
2019-05-07T09:39:16.518Z,74336.00
2019-05-07T09:40:16.515Z,77792.00
2019-05-07T09:41:16.514Z,80800.00
2019-05-07T09:42:16.513Z,72576.00
2019-05-07T09:43:16.511Z,89472.00
2019-05-07T09:44:16.511Z,52800.00
2019-05-07T09:45:16.512Z,22272.00
2019-05-07T09:46:16.510Z,21280.00
2019-05-07T09:47:16.510Z,20576.00
2019-05-07T09:48:16.509Z,21472.00
2019-05-07T09:49:16.508Z,60384.00
2019-05-07T09:50:16.514Z,41504.00
2019-05-07T09:51:16.503Z,30560.00
2019-05-07T09:52:16.500Z,28288.00
2019-05-07T09:53:16.507Z,38784.00
2019-05-07T09:54:16.495Z,44608.00
2019-05-07T09:55:17.537Z,34592.00
2019-05-07T09:56:16.489Z,19584.00
2019-05-07T09:57:30.071Z,32608.00
2019-05-07T09:58:16.486Z,46496.00
2019-05-07T09:59:16.483Z,49120.00
2019-05-07T10:00:16.476Z,80672.00
2019-05-07T10:01:16.480Z,42656.00
2019-05-07T10:02:16.470Z,53888.00
2019-05-07T10:03:16.468Z,17856.00
2019-05-07T10:04:16.463Z,14624.00
2019-05-07T10:05:16.460Z,13456.00
2019-05-07T10:06:16.458Z,13532.00
2019-05-07T10:07:16.453Z,13776.00
2019-05-07T10:08:16.450Z,19776.00
2019-05-07T10:09:16.445Z,15416.00
2019-05-07T10:10:16.440Z,16064.00
2019-05-07T10:11:16.434Z,15988.00
2019-05-07T10:12:16.428Z,16184.00
2019-05-07T10:13:16.437Z,16992.00
2019-05-07T10:14:16.418Z,17728.00
2019-05-07T10:15:16.463Z,20032.00
2019-05-07T10:16:16.406Z,23904.00
2019-05-07T10:17:16.400Z,23136.00
2019-05-07T10:18:16.396Z,26112.00
2019-05-07T10:19:16.390Z,28448.00
2019-05-07T10:20:22.140Z,25728.00
2019-05-07T10:21:16.379Z,22656.00
2019-05-07T10:22:16.373Z,20352.00
2019-05-07T10:23:16.369Z,18656.00
2019-05-07T10:24:16.368Z,17504.00
2019-05-07T10:25:16.360Z,16672.00
2019-05-07T10:26:16.351Z,15984.00
2019-05-07T10:27:16.346Z,15864.00
2019-05-07T10:28:16.339Z,16008.00
2019-05-07T10:29:16.335Z,16608.00
2019-05-07T10:30:16.329Z,17216.00
2019-05-07T10:31:16.322Z,18272.00
2019-05-07T10:32:16.317Z,19360.00
2019-05-07T10:33:16.311Z,20416.00
2019-05-07T10:34:16.304Z,20224.00
2019-05-07T10:35:16.299Z,19744.00
2019-05-07T10:36:16.300Z,21440.00
2019-05-07T10:37:16.286Z,24672.00
2019-05-07T10:38:16.284Z,21920.00
2019-05-07T10:39:16.275Z,21696.00
2019-05-07T10:40:16.268Z,21824.00
2019-05-07T10:41:16.263Z,21888.00
2019-05-07T10:42:16.257Z,21504.00
2019-05-07T10:43:16.252Z,20928.00
2019-05-07T10:44:16.244Z,20192.00
2019-05-07T10:45:16.238Z,19616.00
2019-05-07T10:46:16.232Z,19872.00
2019-05-07T10:47:16.226Z,20736.00
2019-05-07T10:48:16.219Z,21824.00
2019-05-07T10:49:16.215Z,22048.00
2019-05-07T10:50:16.214Z,24096.00
2019-05-07T10:51:16.201Z,24032.00
2019-05-07T10:52:16.197Z,74720.00
2019-05-07T10:53:16.189Z,76448.00
2019-05-07T10:54:16.185Z,40544.00
2019-05-07T10:55:16.180Z,33952.00
2019-05-07T10:56:16.174Z,30464.00
2019-05-07T10:57:16.172Z,25440.00
2019-05-07T10:58:16.169Z,25184.00
2019-05-07T10:59:16.167Z,23968.00
2019-05-07T11:00:16.163Z,21984.00
2019-05-07T11:01:16.154Z,20544.00
2019-05-07T11:02:16.151Z,19392.00
2019-05-07T11:03:16.148Z,18368.00
2019-05-07T11:04:16.142Z,17440.00
2019-05-07T11:05:16.137Z,16512.00
2019-05-07T11:06:16.133Z,15480.00
2019-05-07T11:07:16.131Z,14868.00
2019-05-07T11:08:16.123Z,14548.00
2019-05-07T11:09:16.124Z,14388.00
2019-05-07T11:10:16.120Z,14228.00
2019-05-07T11:11:16.110Z,14196.00
2019-05-07T11:12:16.102Z,14248.00
2019-05-07T11:13:16.097Z,14220.00
2019-05-07T11:14:16.100Z,14100.00
2019-05-07T11:15:16.086Z,14388.00
2019-05-07T11:16:16.080Z,15128.00
2019-05-07T11:17:16.076Z,15620.00
2019-05-07T11:18:16.068Z,15448.00
2019-05-07T11:19:18.787Z,14768.00
2019-05-07T11:20:16.056Z,14008.00
2019-05-07T11:21:16.052Z,13416.00
2019-05-07T11:22:16.044Z,12748.00
2019-05-07T11:23:16.038Z,12220.00
2019-05-07T11:24:16.030Z,12392.00
2019-05-07T11:25:16.023Z,13104.00
2019-05-07T11:26:16.018Z,13608.00
2019-05-07T11:27:16.011Z,13584.00
2019-05-07T11:28:16.003Z,13276.00
2019-05-07T11:29:15.996Z,18208.00
2019-05-07T11:30:15.991Z,13924.00
2019-05-07T11:31:15.982Z,14480.00
2019-05-07T11:32:15.974Z,14948.00
2019-05-07T11:33:15.968Z,14796.00
2019-05-07T11:34:15.961Z,14304.00
2019-05-07T11:35:15.954Z,13988.00
2019-05-07T11:36:15.945Z,13752.00
2019-05-07T11:37:15.939Z,13612.00
2019-05-07T11:38:21.591Z,13772.00
2019-05-07T11:39:15.923Z,14640.00
2019-05-07T11:40:15.915Z,15348.00
2019-05-07T11:41:15.909Z,15664.00
2019-05-07T11:42:15.901Z,15956.00
2019-05-07T11:43:15.897Z,16576.00
2019-05-07T11:44:15.886Z,17280.00
2019-05-07T11:45:15.880Z,17984.00
2019-05-07T11:46:15.871Z,18336.00
2019-05-07T11:47:15.864Z,18688.00
2019-05-07T11:48:15.857Z,18752.00
2019-05-07T11:49:15.849Z,18656.00
2019-05-07T11:50:15.843Z,18624.00
2019-05-07T11:51:15.835Z,18400.00
2019-05-07T11:52:15.826Z,17888.00
2019-05-07T11:53:15.819Z,17472.00
2019-05-07T11:54:15.813Z,17408.00
2019-05-07T11:55:15.806Z,17600.00
2019-05-07T11:56:15.801Z,17952.00
2019-05-07T11:57:15.792Z,18592.00
2019-05-07T11:58:15.785Z,19456.00
2019-05-07T11:59:15.779Z,20928.00
2019-05-07T12:00:15.771Z,20960.00
2019-05-07T12:01:15.765Z,21344.00
2019-05-07T12:02:15.759Z,22048.00
2019-05-07T12:03:15.752Z,21568.00
2019-05-07T12:04:15.745Z,21600.00
2019-05-07T12:05:15.739Z,21472.00
2019-05-07T12:06:15.733Z,21824.00
2019-05-07T12:07:15.726Z,21472.00
2019-05-07T12:08:15.720Z,21280.00
2019-05-07T12:09:15.716Z,20928.00
2019-05-07T12:10:15.711Z,20480.00
2019-05-07T12:11:15.700Z,20512.00
2019-05-07T12:12:15.696Z,20768.00
2019-05-07T12:13:15.690Z,21184.00
2019-05-07T12:14:28.130Z,21408.00
2019-05-07T12:15:15.683Z,20832.00
2019-05-07T12:16:15.669Z,21312.00
2019-05-07T12:17:15.667Z,22688.00